sensor_id;sensor_type;location;lat;lon;timestamp;temperature;humidity
43858;DHT22;29507;51.284;5.758;2023-04-03T00:01:08;-0.90;99.90
43858;DHT22;29507;51.284;5.758;2023-04-03T00:03:34;-0.90;99.90
43858;DHT22;29507;51.284;5.758;2023-04-03T00:06:00;-0.90;99.90
43858;DHT22;29507;51.284;5.758;2023-04-03T00:08:26;-0.80;99.90
43858;DHT22;29507;51.284;5.758;2023-04-03T00:10:52;-0.80;99.90
43858;DHT22;29507;51.284;5.758;2023-04-03T00:13:18;-0.90;99.90
43858;DHT22;29507;51.284;5.758;2023-04-03T00:15:44;-0.90;99.90
43858;DHT22;29507;51.284;5.758;2023-04-03T00:18:10;-1.00;99.90
43858;DHT22;29507;51.284;5.758;2023-04-03T00:20:35;-1.00;99.90
43858;DHT22;29507;51.284;5.758;2023-04-03T00:23:01;-1.00;99.90
43858;DHT22;29507;51.284;5.758;2023-04-03T00:25:27;-1.00;99.90
43858;DHT22;29507;51.284;5.758;2023-04-03T00:27:53;-1.10;99.90
43858;DHT22;29507;51.284;5.758;2023-04-03T00:30:20;-1.00;99.90
43858;DHT22;29507;51.284;5.758;2023-04-03T00:32:48;-1.10;99.90
43858;DHT22;29507;51.284;5.758;2023-04-03T00:35:14;-1.10;99.90
43858;DHT22;29507;51.284;5.758;2023-04-03T00:37:41;-1.10;99.90
43858;DHT22;29507;51.284;5.758;2023-04-03T00:40:08;-1.10;99.90
43858;DHT22;29507;51.284;5.758;2023-04-03T00:42:36;-1.10;99.90
43858;DHT22;29507;51.284;5.758;2023-04-03T00:47:30;-1.20;99.90
43858;DHT22;29507;51.284;5.758;2023-04-03T00:49:57;-1.20;99.90
43858;DHT22;29507;51.284;5.758;2023-04-03T00:52:27;-1.20;99.90
43858;DHT22;29507;51.284;5.758;2023-04-03T00:54:58;-1.30;99.90
43858;DHT22;29507;51.284;5.758;2023-04-03T00:57:25;-1.30;99.90
43858;DHT22;29507;51.284;5.758;2023-04-03T00:59:56;-1.30;99.90
43858;DHT22;29507;51.284;5.758;2023-04-03T01:02:23;-1.40;99.90
43858;DHT22;29507;51.284;5.758;2023-04-03T01:04:48;-1.50;99.90
43858;DHT22;29507;51.284;5.758;2023-04-03T01:07:24;-1.50;99.90
43858;DHT22;29507;51.284;5.758;2023-04-03T01:09:56;-1.50;99.90
43858;DHT22;29507;51.284;5.758;2023-04-03T01:14:58;-1.60;99.90
43858;DHT22;29507;51.284;5.758;2023-04-03T01:17:37;-1.60;99.90
43858;DHT22;29507;51.284;5.758;2023-04-03T01:25:51;-1.70;99.90
43858;DHT22;29507;51.284;5.758;2023-04-03T01:31:16;-1.60;99.90
43858;DHT22;29507;51.284;5.758;2023-04-03T01:33:43;-1.50;99.90
43858;DHT22;29507;51.284;5.758;2023-04-03T01:36:11;-1.50;99.90
43858;DHT22;29507;51.284;5.758;2023-04-03T01:38:38;-1.30;99.90
43858;DHT22;29507;51.284;5.758;2023-04-03T01:41:04;-1.20;99.90
43858;DHT22;29507;51.284;5.758;2023-04-03T01:43:29;-1.00;99.90
43858;DHT22;29507;51.284;5.758;2023-04-03T01:45:55;-0.90;99.90
43858;DHT22;29507;51.284;5.758;2023-04-03T01:48:21;-0.80;99.90
43858;DHT22;29507;51.284;5.758;2023-04-03T01:50:47;-0.80;99.90
43858;DHT22;29507;51.284;5.758;2023-04-03T01:53:13;-0.80;99.90
43858;DHT22;29507;51.284;5.758;2023-04-03T01:55:38;-0.70;99.90
43858;DHT22;29507;51.284;5.758;2023-04-03T01:58:04;-0.70;99.90
43858;DHT22;29507;51.284;5.758;2023-04-03T02:00:30;-0.70;99.90
43858;DHT22;29507;51.284;5.758;2023-04-03T02:02:56;-0.70;99.90
43858;DHT22;29507;51.284;5.758;2023-04-03T02:05:22;-0.70;99.90
43858;DHT22;29507;51.284;5.758;2023-04-03T02:07:48;-0.70;99.90
43858;DHT22;29507;51.284;5.758;2023-04-03T02:10:13;-0.70;99.90
43858;DHT22;29507;51.284;5.758;2023-04-03T02:12:41;-0.70;99.90
43858;DHT22;29507;51.284;5.758;2023-04-03T02:15:07;-0.70;99.90
43858;DHT22;29507;51.284;5.758;2023-04-03T02:17:32;-0.70;99.90
43858;DHT22;29507;51.284;5.758;2023-04-03T02:19:58;-0.70;99.90
43858;DHT22;29507;51.284;5.758;2023-04-03T02:22:24;-0.70;99.90
43858;DHT22;29507;51.284;5.758;2023-04-03T02:24:49;-0.70;99.90
43858;DHT22;29507;51.284;5.758;2023-04-03T02:27:15;-0.80;99.90
43858;DHT22;29507;51.284;5.758;2023-04-03T02:29:41;-0.70;99.90
43858;DHT22;29507;51.284;5.758;2023-04-03T02:32:06;-0.80;99.90
43858;DHT22;29507;51.284;5.758;2023-04-03T02:34:32;-0.80;99.90
43858;DHT22;29507;51.284;5.758;2023-04-03T02:36:57;-0.90;99.90
43858;DHT22;29507;51.284;5.758;2023-04-03T02:39:23;-1.00;99.90
43858;DHT22;29507;51.284;5.758;2023-04-03T02:41:49;-0.90;99.90
43858;DHT22;29507;51.284;5.758;2023-04-03T02:44:14;-1.00;99.90
43858;DHT22;29507;51.284;5.758;2023-04-03T02:46:40;-1.00;99.90
43858;DHT22;29507;51.284;5.758;2023-04-03T02:49:06;-0.90;99.90
43858;DHT22;29507;51.284;5.758;2023-04-03T02:51:32;-0.80;99.90
43858;DHT22;29507;51.284;5.758;2023-04-03T02:53:57;-0.70;99.90
43858;DHT22;29507;51.284;5.758;2023-04-03T02:56:23;-0.70;99.90
43858;DHT22;29507;51.284;5.758;2023-04-03T02:58:48;-0.60;99.90
43858;DHT22;29507;51.284;5.758;2023-04-03T03:01:15;-0.60;99.90
43858;DHT22;29507;51.284;5.758;2023-04-03T03:03:40;-0.50;99.90
43858;DHT22;29507;51.284;5.758;2023-04-03T03:06:08;-0.50;99.90
43858;DHT22;29507;51.284;5.758;2023-04-03T03:08:34;-0.30;99.90
43858;DHT22;29507;51.284;5.758;2023-04-03T03:11:00;-0.40;99.90
43858;DHT22;29507;51.284;5.758;2023-04-03T03:13:26;-0.40;99.90
43858;DHT22;29507;51.284;5.758;2023-04-03T03:15:52;-0.40;99.90
43858;DHT22;29507;51.284;5.758;2023-04-03T03:18:17;-0.40;99.90
43858;DHT22;29507;51.284;5.758;2023-04-03T03:20:43;-0.40;99.90
43858;DHT22;29507;51.284;5.758;2023-04-03T03:23:09;-0.30;99.90
43858;DHT22;29507;51.284;5.758;2023-04-03T03:25:38;-0.40;99.90
43858;DHT22;29507;51.284;5.758;2023-04-03T03:28:04;-0.60;99.90
43858;DHT22;29507;51.284;5.758;2023-04-03T03:30:30;-0.80;99.90
43858;DHT22;29507;51.284;5.758;2023-04-03T03:32:55;-0.90;99.90
43858;DHT22;29507;51.284;5.758;2023-04-03T03:35:22;-1.00;99.90
43858;DHT22;29507;51.284;5.758;2023-04-03T03:37:47;-1.00;99.90
43858;DHT22;29507;51.284;5.758;2023-04-03T03:40:13;-1.10;99.90
43858;DHT22;29507;51.284;5.758;2023-04-03T03:42:39;-1.10;99.90
43858;DHT22;29507;51.284;5.758;2023-04-03T03:45:05;-1.10;99.90
43858;DHT22;29507;51.284;5.758;2023-04-03T03:47:31;-1.10;99.90
43858;DHT22;29507;51.284;5.758;2023-04-03T03:49:57;-1.00;99.90
43858;DHT22;29507;51.284;5.758;2023-04-03T03:52:22;-1.00;99.90
43858;DHT22;29507;51.284;5.758;2023-04-03T03:54:48;-0.90;99.90
43858;DHT22;29507;51.284;5.758;2023-04-03T03:57:14;-0.90;99.90
43858;DHT22;29507;51.284;5.758;2023-04-03T03:59:40;-0.80;99.90
43858;DHT22;29507;51.284;5.758;2023-04-03T04:02:07;-0.80;99.90
43858;DHT22;29507;51.284;5.758;2023-04-03T04:04:33;-0.70;99.90
43858;DHT22;29507;51.284;5.758;2023-04-03T04:06:59;-0.80;99.90
43858;DHT22;29507;51.284;5.758;2023-04-03T04:09:26;-0.80;99.90
43858;DHT22;29507;51.284;5.758;2023-04-03T04:11:51;-0.80;99.90
43858;DHT22;29507;51.284;5.758;2023-04-03T04:14:17;-0.80;99.90
43858;DHT22;29507;51.284;5.758;2023-04-03T04:16:43;-0.80;99.90
43858;DHT22;29507;51.284;5.758;2023-04-03T04:19:08;-0.80;99.90
43858;DHT22;29507;51.284;5.758;2023-04-03T04:21:35;-0.80;99.90
43858;DHT22;29507;51.284;5.758;2023-04-03T04:24:01;-0.80;99.90
43858;DHT22;29507;51.284;5.758;2023-04-03T04:26:26;-0.80;99.90
43858;DHT22;29507;51.284;5.758;2023-04-03T04:28:52;-0.80;99.90
43858;DHT22;29507;51.284;5.758;2023-04-03T04:31:17;-0.80;99.90
43858;DHT22;29507;51.284;5.758;2023-04-03T04:33:43;-0.80;99.90
43858;DHT22;29507;51.284;5.758;2023-04-03T04:36:08;-0.80;99.90
43858;DHT22;29507;51.284;5.758;2023-04-03T04:38:34;-0.70;99.90
43858;DHT22;29507;51.284;5.758;2023-04-03T04:41:00;-0.70;99.90
43858;DHT22;29507;51.284;5.758;2023-04-03T04:43:26;-0.70;99.90
43858;DHT22;29507;51.284;5.758;2023-04-03T04:46:06;-0.70;99.90
43858;DHT22;29507;51.284;5.758;2023-04-03T04:48:32;-0.60;99.90
43858;DHT22;29507;51.284;5.758;2023-04-03T04:50:58;-0.60;99.90
43858;DHT22;29507;51.284;5.758;2023-04-03T04:53:24;-0.60;99.90
43858;DHT22;29507;51.284;5.758;2023-04-03T04:55:49;-0.70;99.90
43858;DHT22;29507;51.284;5.758;2023-04-03T04:58:15;-0.70;99.90
43858;DHT22;29507;51.284;5.758;2023-04-03T05:00:41;-0.70;99.90
43858;DHT22;29507;51.284;5.758;2023-04-03T05:03:07;-0.70;99.90
43858;DHT22;29507;51.284;5.758;2023-04-03T05:05:32;-0.60;99.90
43858;DHT22;29507;51.284;5.758;2023-04-03T05:07:58;-0.60;99.90
43858;DHT22;29507;51.284;5.758;2023-04-03T05:10:24;-0.70;99.90
43858;DHT22;29507;51.284;5.758;2023-04-03T05:12:49;-0.70;99.90
43858;DHT22;29507;51.284;5.758;2023-04-03T05:15:15;-0.60;99.90
43858;DHT22;29507;51.284;5.758;2023-04-03T05:17:40;-0.70;99.90
43858;DHT22;29507;51.284;5.758;2023-04-03T05:20:06;-0.70;99.90
43858;DHT22;29507;51.284;5.758;2023-04-03T05:22:32;-0.80;99.90
43858;DHT22;29507;51.284;5.758;2023-04-03T05:24:58;-0.80;99.90
43858;DHT22;29507;51.284;5.758;2023-04-03T05:27:23;-0.90;99.90
43858;DHT22;29507;51.284;5.758;2023-04-03T05:29:50;-0.90;99.90
43858;DHT22;29507;51.284;5.758;2023-04-03T05:32:17;-0.90;99.90
43858;DHT22;29507;51.284;5.758;2023-04-03T05:34:43;-0.90;99.90
43858;DHT22;29507;51.284;5.758;2023-04-03T05:37:08;-0.80;99.90
43858;DHT22;29507;51.284;5.758;2023-04-03T05:39:34;-0.70;99.90
43858;DHT22;29507;51.284;5.758;2023-04-03T05:42:01;-0.60;99.90
43858;DHT22;29507;51.284;5.758;2023-04-03T05:44:27;-0.40;99.90
43858;DHT22;29507;51.284;5.758;2023-04-03T05:46:52;-0.40;99.90
43858;DHT22;29507;51.284;5.758;2023-04-03T05:49:18;-0.30;99.90
43858;DHT22;29507;51.284;5.758;2023-04-03T05:51:43;-0.20;99.90
43858;DHT22;29507;51.284;5.758;2023-04-03T05:54:23;-0.20;99.90
43858;DHT22;29507;51.284;5.758;2023-04-03T05:56:50;-0.10;99.90
43858;DHT22;29507;51.284;5.758;2023-04-03T05:59:17;0.00;99.90
43858;DHT22;29507;51.284;5.758;2023-04-03T06:01:43;0.00;99.90
43858;DHT22;29507;51.284;5.758;2023-04-03T06:04:08;0.00;99.90
43858;DHT22;29507;51.284;5.758;2023-04-03T06:06:49;0.00;99.90
43858;DHT22;29507;51.284;5.758;2023-04-03T06:09:17;0.00;99.90
43858;DHT22;29507;51.284;5.758;2023-04-03T06:11:43;0.00;99.90
43858;DHT22;29507;51.284;5.758;2023-04-03T06:14:09;0.10;99.90
43858;DHT22;29507;51.284;5.758;2023-04-03T06:16:36;0.10;99.90
43858;DHT22;29507;51.284;5.758;2023-04-03T06:19:02;0.20;99.90
43858;DHT22;29507;51.284;5.758;2023-04-03T06:21:28;0.20;99.90
43858;DHT22;29507;51.284;5.758;2023-04-03T06:23:53;0.40;99.90
43858;DHT22;29507;51.284;5.758;2023-04-03T06:26:19;0.50;99.90
43858;DHT22;29507;51.284;5.758;2023-04-03T06:28:46;0.60;99.90
43858;DHT22;29507;51.284;5.758;2023-04-03T06:31:11;0.70;99.90
43858;DHT22;29507;51.284;5.758;2023-04-03T06:33:37;0.80;99.90
43858;DHT22;29507;51.284;5.758;2023-04-03T06:36:05;0.90;99.90
43858;DHT22;29507;51.284;5.758;2023-04-03T06:38:32;1.00;99.90
43858;DHT22;29507;51.284;5.758;2023-04-03T06:40:58;1.10;99.90
43858;DHT22;29507;51.284;5.758;2023-04-03T06:43:24;1.10;99.90
43858;DHT22;29507;51.284;5.758;2023-04-03T06:45:50;1.20;99.90
43858;DHT22;29507;51.284;5.758;2023-04-03T06:48:16;2.00;99.90
43858;DHT22;29507;51.284;5.758;2023-04-03T06:50:42;3.20;99.90
43858;DHT22;29507;51.284;5.758;2023-04-03T06:53:08;4.10;99.90
43858;DHT22;29507;51.284;5.758;2023-04-03T06:55:34;4.70;99.90
43858;DHT22;29507;51.284;5.758;2023-04-03T06:58:00;5.10;99.90
43858;DHT22;29507;51.284;5.758;2023-04-03T07:00:26;5.50;99.90
43858;DHT22;29507;51.284;5.758;2023-04-03T07:02:51;6.10;99.90
43858;DHT22;29507;51.284;5.758;2023-04-03T07:05:18;6.50;99.90
43858;DHT22;29507;51.284;5.758;2023-04-03T07:07:44;6.70;99.90
43858;DHT22;29507;51.284;5.758;2023-04-03T07:10:09;6.80;99.90
43858;DHT22;29507;51.284;5.758;2023-04-03T07:12:36;7.10;99.90
43858;DHT22;29507;51.284;5.758;2023-04-03T07:15:04;7.30;99.90
43858;DHT22;29507;51.284;5.758;2023-04-03T07:17:30;7.40;99.90
43858;DHT22;29507;51.284;5.758;2023-04-03T07:19:55;7.60;99.90
43858;DHT22;29507;51.284;5.758;2023-04-03T07:22:21;7.60;99.90
43858;DHT22;29507;51.284;5.758;2023-04-03T07:24:47;7.80;99.90
43858;DHT22;29507;51.284;5.758;2023-04-03T07:27:12;8.10;99.90
43858;DHT22;29507;51.284;5.758;2023-04-03T07:29:38;8.20;99.90
43858;DHT22;29507;51.284;5.758;2023-04-03T07:32:05;8.10;99.90
43858;DHT22;29507;51.284;5.758;2023-04-03T07:34:31;8.40;99.90
43858;DHT22;29507;51.284;5.758;2023-04-03T07:36:58;8.60;99.90
43858;DHT22;29507;51.284;5.758;2023-04-03T07:39:23;8.70;99.90
43858;DHT22;29507;51.284;5.758;2023-04-03T07:41:49;8.60;99.90
43858;DHT22;29507;51.284;5.758;2023-04-03T07:44:15;8.90;99.90
43858;DHT22;29507;51.284;5.758;2023-04-03T07:46:40;9.00;99.90
43858;DHT22;29507;51.284;5.758;2023-04-03T07:49:06;9.10;99.90
43858;DHT22;29507;51.284;5.758;2023-04-03T07:51:32;9.20;99.90
43858;DHT22;29507;51.284;5.758;2023-04-03T07:53:57;9.50;99.80
43858;DHT22;29507;51.284;5.758;2023-04-03T07:56:24;9.60;99.30
43858;DHT22;29507;51.284;5.758;2023-04-03T07:58:50;9.60;98.70
43858;DHT22;29507;51.284;5.758;2023-04-03T08:01:16;9.70;98.10
43858;DHT22;29507;51.284;5.758;2023-04-03T08:03:41;9.80;97.60
43858;DHT22;29507;51.284;5.758;2023-04-03T08:06:08;9.90;97.30
43858;DHT22;29507;51.284;5.758;2023-04-03T08:08:34;10.10;96.70
43858;DHT22;29507;51.284;5.758;2023-04-03T08:11:01;9.90;96.10
43858;DHT22;29507;51.284;5.758;2023-04-03T08:13:28;9.80;96.50
43858;DHT22;29507;51.284;5.758;2023-04-03T08:15:54;9.70;96.10
43858;DHT22;29507;51.284;5.758;2023-04-03T08:18:21;9.70;97.10
43858;DHT22;29507;51.284;5.758;2023-04-03T08:20:50;9.80;96.30
43858;DHT22;29507;51.284;5.758;2023-04-03T08:23:17;9.90;95.40
43858;DHT22;29507;51.284;5.758;2023-04-03T08:25:43;9.70;95.10
43858;DHT22;29507;51.284;5.758;2023-04-03T08:28:10;9.60;95.50
43858;DHT22;29507;51.284;5.758;2023-04-03T08:30:38;9.80;96.30
43858;DHT22;29507;51.284;5.758;2023-04-03T08:33:04;9.90;93.90
43858;DHT22;29507;51.284;5.758;2023-04-03T08:35:30;9.90;92.30
43858;DHT22;29507;51.284;5.758;2023-04-03T08:37:55;9.70;93.80
43858;DHT22;29507;51.284;5.758;2023-04-03T08:40:22;9.70;93.90
43858;DHT22;29507;51.284;5.758;2023-04-03T08:48:14;9.90;94.40
43858;DHT22;29507;51.284;5.758;2023-04-03T08:50:43;10.00;93.60
43858;DHT22;29507;51.284;5.758;2023-04-03T08:53:21;10.20;93.50
43858;DHT22;29507;51.284;5.758;2023-04-03T08:55:50;10.30;93.20
43858;DHT22;29507;51.284;5.758;2023-04-03T09:03:16;10.50;91.40
43858;DHT22;29507;51.284;5.758;2023-04-03T09:05:57;10.60;91.00
43858;DHT22;29507;51.284;5.758;2023-04-03T09:08:35;10.70;91.40
43858;DHT22;29507;51.284;5.758;2023-04-03T09:11:24;11.20;89.30
43858;DHT22;29507;51.284;5.758;2023-04-03T09:14:08;11.30;87.60
43858;DHT22;29507;51.284;5.758;2023-04-03T09:16:59;11.40;86.00
43858;DHT22;29507;51.284;5.758;2023-04-03T09:21:58;10.90;79.50
43858;DHT22;29507;51.284;5.758;2023-04-03T09:24:25;10.90;77.40
43858;DHT22;29507;51.284;5.758;2023-04-03T09:29:21;11.00;77.60
43858;DHT22;29507;51.284;5.758;2023-04-03T09:31:50;10.90;74.80
43858;DHT22;29507;51.284;5.758;2023-04-03T09:36:55;11.60;78.20
43858;DHT22;29507;51.284;5.758;2023-04-03T09:39:28;11.60;75.30
43858;DHT22;29507;51.284;5.758;2023-04-03T09:42:00;11.60;74.80
43858;DHT22;29507;51.284;5.758;2023-04-03T09:44:37;11.60;75.10
43858;DHT22;29507;51.284;5.758;2023-04-03T09:49:44;11.70;73.30
43858;DHT22;29507;51.284;5.758;2023-04-03T09:52:23;11.70;74.20
43858;DHT22;29507;51.284;5.758;2023-04-03T09:54:49;11.50;72.30
43858;DHT22;29507;51.284;5.758;2023-04-03T09:57:15;11.40;71.70
43858;DHT22;29507;51.284;5.758;2023-04-03T10:04:41;12.10;69.70
43858;DHT22;29507;51.284;5.758;2023-04-03T10:07:31;12.00;67.90
43858;DHT22;29507;51.284;5.758;2023-04-03T10:10:02;12.00;67.80
43858;DHT22;29507;51.284;5.758;2023-04-03T10:12:28;12.20;68.20
43858;DHT22;29507;51.284;5.758;2023-04-03T10:15:00;12.60;68.40
43858;DHT22;29507;51.284;5.758;2023-04-03T10:17:53;12.80;67.80
43858;DHT22;29507;51.284;5.758;2023-04-03T10:20:44;12.80;66.80
43858;DHT22;29507;51.284;5.758;2023-04-03T10:23:21;13.30;67.50
43858;DHT22;29507;51.284;5.758;2023-04-03T10:28:28;13.60;64.10
43858;DHT22;29507;51.284;5.758;2023-04-03T10:30:58;13.20;64.70
43858;DHT22;29507;51.284;5.758;2023-04-03T10:36:34;13.10;65.00
43858;DHT22;29507;51.284;5.758;2023-04-03T10:41:49;13.50;63.40
43858;DHT22;29507;51.284;5.758;2023-04-03T10:55:46;13.70;63.60
43858;DHT22;29507;51.284;5.758;2023-04-03T10:58:25;13.60;61.40
43858;DHT22;29507;51.284;5.758;2023-04-03T11:00:54;13.80;58.80
43858;DHT22;29507;51.284;5.758;2023-04-03T11:03:41;13.60;57.00
43858;DHT22;29507;51.284;5.758;2023-04-03T11:06:10;13.70;56.70
43858;DHT22;29507;51.284;5.758;2023-04-03T11:08:46;13.80;55.10
43858;DHT22;29507;51.284;5.758;2023-04-03T11:11:22;13.60;55.30
43858;DHT22;29507;51.284;5.758;2023-04-03T11:13:55;13.70;54.70
43858;DHT22;29507;51.284;5.758;2023-04-03T11:16:25;13.80;54.40
43858;DHT22;29507;51.284;5.758;2023-04-03T11:19:05;14.10;55.90
43858;DHT22;29507;51.284;5.758;2023-04-03T11:21:44;14.20;53.80
43858;DHT22;29507;51.284;5.758;2023-04-03T11:24:20;14.00;54.30
43858;DHT22;29507;51.284;5.758;2023-04-03T11:26:49;14.00;53.90
43858;DHT22;29507;51.284;5.758;2023-04-03T11:29:22;14.20;54.70
43858;DHT22;29507;51.284;5.758;2023-04-03T11:34:48;14.00;56.70
43858;DHT22;29507;51.284;5.758;2023-04-03T11:40:00;14.90;55.10
43858;DHT22;29507;51.284;5.758;2023-04-03T11:42:37;14.60;54.40
43858;DHT22;29507;51.284;5.758;2023-04-03T11:48:05;14.40;54.10
43858;DHT22;29507;51.284;5.758;2023-04-03T11:53:00;14.50;54.20
43858;DHT22;29507;51.284;5.758;2023-04-03T12:08:54;15.40;52.50
43858;DHT22;29507;51.284;5.758;2023-04-03T12:11:32;15.60;52.70
43858;DHT22;29507;51.284;5.758;2023-04-03T12:16:30;15.80;52.80
43858;DHT22;29507;51.284;5.758;2023-04-03T12:19:03;16.10;52.10
43858;DHT22;29507;51.284;5.758;2023-04-03T12:27:02;16.40;52.30
43858;DHT22;29507;51.284;5.758;2023-04-03T12:32:31;16.20;51.30
43858;DHT22;29507;51.284;5.758;2023-04-03T12:35:20;16.20;53.00
43858;DHT22;29507;51.284;5.758;2023-04-03T12:48:59;16.60;51.30
43858;DHT22;29507;51.284;5.758;2023-04-03T12:51:29;16.80;53.60
43858;DHT22;29507;51.284;5.758;2023-04-03T12:54:01;16.80;52.20
43858;DHT22;29507;51.284;5.758;2023-04-03T12:56:32;16.70;50.00
43858;DHT22;29507;51.284;5.758;2023-04-03T12:59:18;16.60;50.70
43858;DHT22;29507;51.284;5.758;2023-04-03T13:01:57;16.60;52.40
43858;DHT22;29507;51.284;5.758;2023-04-03T13:04:24;16.80;50.90
43858;DHT22;29507;51.284;5.758;2023-04-03T13:06:50;16.90;52.00
43858;DHT22;29507;51.284;5.758;2023-04-03T13:09:27;17.00;51.80
43858;DHT22;29507;51.284;5.758;2023-04-03T13:12:10;16.90;50.80
43858;DHT22;29507;51.284;5.758;2023-04-03T13:14:37;17.20;51.00
43858;DHT22;29507;51.284;5.758;2023-04-03T13:17:23;17.00;49.90
43858;DHT22;29507;51.284;5.758;2023-04-03T13:19:49;17.50;51.30
43858;DHT22;29507;51.284;5.758;2023-04-03T13:22:34;17.80;50.00
43858;DHT22;29507;51.284;5.758;2023-04-03T13:25:07;17.80;51.50
43858;DHT22;29507;51.284;5.758;2023-04-03T13:27:34;17.80;50.30
43858;DHT22;29507;51.284;5.758;2023-04-03T13:30:03;17.70;50.50
43858;DHT22;29507;51.284;5.758;2023-04-03T13:32:30;17.70;49.80
43858;DHT22;29507;51.284;5.758;2023-04-03T13:34:57;17.60;50.20
43858;DHT22;29507;51.284;5.758;2023-04-03T13:37:33;17.90;50.90
43858;DHT22;29507;51.284;5.758;2023-04-03T13:40:03;17.80;51.10
43858;DHT22;29507;51.284;5.758;2023-04-03T13:42:38;17.50;52.50
43858;DHT22;29507;51.284;5.758;2023-04-03T13:47:50;18.40;51.30
43858;DHT22;29507;51.284;5.758;2023-04-03T13:50:24;17.90;51.80
43858;DHT22;29507;51.284;5.758;2023-04-03T13:53:08;17.50;51.70
43858;DHT22;29507;51.284;5.758;2023-04-03T13:55:36;17.30;51.30
43858;DHT22;29507;51.284;5.758;2023-04-03T14:00:47;17.50;51.70
43858;DHT22;29507;51.284;5.758;2023-04-03T14:03:47;17.70;52.50
43858;DHT22;29507;51.284;5.758;2023-04-03T14:06:17;17.60;51.10
43858;DHT22;29507;51.284;5.758;2023-04-03T14:08:44;17.70;51.30
43858;DHT22;29507;51.284;5.758;2023-04-03T14:13:42;17.20;52.00
43858;DHT22;29507;51.284;5.758;2023-04-03T14:16:13;17.10;51.70
43858;DHT22;29507;51.284;5.758;2023-04-03T14:18:39;17.10;52.10
43858;DHT22;29507;51.284;5.758;2023-04-03T14:21:04;17.10;52.40
43858;DHT22;29507;51.284;5.758;2023-04-03T14:23:30;17.30;52.40
43858;DHT22;29507;51.284;5.758;2023-04-03T14:25:56;17.50;54.10
43858;DHT22;29507;51.284;5.758;2023-04-03T14:28:22;17.60;51.40
43858;DHT22;29507;51.284;5.758;2023-04-03T14:30:50;17.30;49.90
43858;DHT22;29507;51.284;5.758;2023-04-03T14:33:21;16.90;52.20
43858;DHT22;29507;51.284;5.758;2023-04-03T14:35:48;16.60;52.30
43858;DHT22;29507;51.284;5.758;2023-04-03T14:38:24;16.30;51.70
43858;DHT22;29507;51.284;5.758;2023-04-03T14:40:52;16.20;53.20
43858;DHT22;29507;51.284;5.758;2023-04-03T14:43:18;16.10;51.70
43858;DHT22;29507;51.284;5.758;2023-04-03T14:45:44;15.80;51.20
43858;DHT22;29507;51.284;5.758;2023-04-03T14:48:17;15.70;51.70
43858;DHT22;29507;51.284;5.758;2023-04-03T14:50:43;15.30;52.70
43858;DHT22;29507;51.284;5.758;2023-04-03T14:53:11;15.00;53.00
43858;DHT22;29507;51.284;5.758;2023-04-03T14:55:38;15.00;53.30
43858;DHT22;29507;51.284;5.758;2023-04-03T14:58:03;14.80;53.70
43858;DHT22;29507;51.284;5.758;2023-04-03T15:00:29;14.60;54.40
43858;DHT22;29507;51.284;5.758;2023-04-03T15:02:55;14.60;55.20
43858;DHT22;29507;51.284;5.758;2023-04-03T15:05:20;14.40;54.80
43858;DHT22;29507;51.284;5.758;2023-04-03T15:07:55;14.40;54.10
43858;DHT22;29507;51.284;5.758;2023-04-03T15:10:27;14.30;53.60
43858;DHT22;29507;51.284;5.758;2023-04-03T15:12:53;14.10;52.40
43858;DHT22;29507;51.284;5.758;2023-04-03T15:15:20;13.80;54.50
43858;DHT22;29507;51.284;5.758;2023-04-03T15:17:47;13.50;55.90
43858;DHT22;29507;51.284;5.758;2023-04-03T15:20:18;13.50;56.20
43858;DHT22;29507;51.284;5.758;2023-04-03T15:22:44;13.40;54.70
43858;DHT22;29507;51.284;5.758;2023-04-03T15:25:10;13.10;54.90
43858;DHT22;29507;51.284;5.758;2023-04-03T15:27:36;13.00;56.10
43858;DHT22;29507;51.284;5.758;2023-04-03T15:30:04;12.80;56.80
43858;DHT22;29507;51.284;5.758;2023-04-03T15:32:30;12.70;57.70
43858;DHT22;29507;51.284;5.758;2023-04-03T15:34:56;12.50;56.90
43858;DHT22;29507;51.284;5.758;2023-04-03T15:37:21;12.50;59.20
43858;DHT22;29507;51.284;5.758;2023-04-03T15:39:47;12.40;59.10
43858;DHT22;29507;51.284;5.758;2023-04-03T15:42:13;12.30;58.40
43858;DHT22;29507;51.284;5.758;2023-04-03T15:44:38;12.10;59.30
43858;DHT22;29507;51.284;5.758;2023-04-03T15:47:04;12.00;59.20
43858;DHT22;29507;51.284;5.758;2023-04-03T15:49:33;11.90;59.30
43858;DHT22;29507;51.284;5.758;2023-04-03T15:51:59;11.70;59.80
43858;DHT22;29507;51.284;5.758;2023-04-03T15:54:25;11.60;60.80
43858;DHT22;29507;51.284;5.758;2023-04-03T15:56:51;11.40;60.40
43858;DHT22;29507;51.284;5.758;2023-04-03T15:59:17;11.20;61.00
43858;DHT22;29507;51.284;5.758;2023-04-03T16:01:43;11.10;63.20
43858;DHT22;29507;51.284;5.758;2023-04-03T16:04:09;11.10;60.80
43858;DHT22;29507;51.284;5.758;2023-04-03T16:06:36;10.80;62.00
43858;DHT22;29507;51.284;5.758;2023-04-03T16:09:02;10.70;61.20
43858;DHT22;29507;51.284;5.758;2023-04-03T16:11:28;10.60;61.10
43858;DHT22;29507;51.284;5.758;2023-04-03T16:13:54;10.50;62.20
43858;DHT22;29507;51.284;5.758;2023-04-03T16:16:20;10.40;62.20
43858;DHT22;29507;51.284;5.758;2023-04-03T16:18:46;10.30;62.50
43858;DHT22;29507;51.284;5.758;2023-04-03T16:21:13;10.30;63.10
43858;DHT22;29507;51.284;5.758;2023-04-03T16:23:39;10.20;63.20
43858;DHT22;29507;51.284;5.758;2023-04-03T16:26:05;10.10;64.10
43858;DHT22;29507;51.284;5.758;2023-04-03T16:28:31;10.10;63.90
43858;DHT22;29507;51.284;5.758;2023-04-03T16:30:57;10.10;65.20
43858;DHT22;29507;51.284;5.758;2023-04-03T16:33:23;10.00;64.50
43858;DHT22;29507;51.284;5.758;2023-04-03T16:35:50;10.10;64.90
43858;DHT22;29507;51.284;5.758;2023-04-03T16:38:17;10.30;64.30
43858;DHT22;29507;51.284;5.758;2023-04-03T16:40:44;10.10;65.20
43858;DHT22;29507;51.284;5.758;2023-04-03T16:43:10;10.10;65.10
43858;DHT22;29507;51.284;5.758;2023-04-03T16:45:36;10.00;64.80
43858;DHT22;29507;51.284;5.758;2023-04-03T16:48:02;10.00;65.00
43858;DHT22;29507;51.284;5.758;2023-04-03T16:50:28;9.90;66.20
43858;DHT22;29507;51.284;5.758;2023-04-03T16:52:53;10.10;64.10
43858;DHT22;29507;51.284;5.758;2023-04-03T16:55:19;10.20;64.50
43858;DHT22;29507;51.284;5.758;2023-04-03T16:57:46;10.30;64.40
43858;DHT22;29507;51.284;5.758;2023-04-03T17:00:12;10.30;64.10
43858;DHT22;29507;51.284;5.758;2023-04-03T17:02:39;10.30;64.60
43858;DHT22;29507;51.284;5.758;2023-04-03T17:05:06;10.30;65.10
43858;DHT22;29507;51.284;5.758;2023-04-03T17:07:32;10.40;64.90
43858;DHT22;29507;51.284;5.758;2023-04-03T17:09:57;10.40;65.00
43858;DHT22;29507;51.284;5.758;2023-04-03T17:12:24;10.50;65.10
43858;DHT22;29507;51.284;5.758;2023-04-03T17:14:49;10.50;65.40
43858;DHT22;29507;51.284;5.758;2023-04-03T17:17:18;10.60;64.00
43858;DHT22;29507;51.284;5.758;2023-04-03T17:19:45;10.70;63.10
43858;DHT22;29507;51.284;5.758;2023-04-03T17:22:11;10.70;64.30
43858;DHT22;29507;51.284;5.758;2023-04-03T17:24:37;10.70;63.70
43858;DHT22;29507;51.284;5.758;2023-04-03T17:27:03;10.80;64.10
43858;DHT22;29507;51.284;5.758;2023-04-03T17:29:29;10.70;63.80
43858;DHT22;29507;51.284;5.758;2023-04-03T17:31:54;10.60;64.10